Time;durP1;ratioP1;P1;durP2;ratioP2;P2;SDS_P1;SDS_P2;PMS_P1;PMS_P2;Temp;Humidity;BMP_temperature;BMP_pressure;BME280_temperature;BME280_humidity;BME280_pressure;Samples;Min_cycle;Max_cycle;Signal;HPM_P1;HPM_P2
2022/03/09 04:00:12;;;;;;;1.23;1.13;;;15.80;46.80;;;;;;6087777;22;46354;-66
2022/03/09 04:02:37;;;;;;;1.98;1.20;;;15.70;46.80;;;;;;4950410;28;46544;-65
2022/03/09 04:05:05;;;;;;;1.85;1.23;;;15.70;46.80;;;;;;4974340;28;45336;-64
2022/03/09 04:07:31;;;;;;;1.48;1.27;;;15.70;46.80;;;;;;4958300;28;44932;-66
2022/03/09 04:09:56;;;;;;;1.15;0.90;;;15.70;46.90;;;;;;4956132;28;45364;-66
2022/03/09 04:12:23;;;;;;;1.13;1.02;;;15.70;46.90;;;;;;4980148;28;45207;-65
2022/03/09 04:14:50;;;;;;;1.33;1.05;;;15.70;46.90;;;;;;4975791;28;45099;-64
2022/03/09 04:17:15;;;;;;;0.68;0.68;;;15.70;46.80;;;;;;4975193;28;45174;-65
2022/03/09 04:19:41;;;;;;;1.30;1.20;;;15.70;46.80;;;;;;4980016;28;44861;-63
2022/03/09 04:22:07;;;;;;;1.40;1.10;;;15.70;46.80;;;;;;4976652;28;45060;-64
2022/03/09 04:24:32;;;;;;;1.17;1.00;;;15.70;46.80;;;;;;4975182;28;46237;-64
2022/03/09 04:26:58;;;;;;;1.13;1.00;;;15.60;46.90;;;;;;4959750;28;45089;-63
2022/03/09 04:29:23;;;;;;;1.77;1.20;;;15.60;46.90;;;;;;4975791;28;45485;-64
2022/03/09 04:31:49;;;;;;;1.55;1.25;;;15.60;46.90;;;;;;4977268;28;45580;-65
2022/03/09 04:34:14;;;;;;;1.92;1.33;;;15.60;46.90;;;;;;4977048;28;46235;-64
2022/03/09 04:36:40;;;;;;;1.63;1.13;;;15.60;46.90;;;;;;4956984;28;45476;-64
2022/03/09 04:39:06;;;;;;;1.08;1.00;;;15.60;46.90;;;;;;4975955;28;45556;-63
2022/03/09 04:41:31;;;;;;;2.00;1.40;;;15.60;46.80;;;;;;4976289;28;44838;-64
2022/03/09 04:43:57;;;;;;;1.13;1.00;;;15.60;46.90;;;;;;4957967;28;45971;-63
2022/03/09 04:46:23;;;;;;;1.10;1.00;;;15.50;46.90;;;;;;4974779;28;45072;-62
2022/03/09 04:48:51;;;;;;;1.27;1.00;;;15.50;46.90;;;;;;4958481;28;45479;-62
2022/03/09 04:51:17;;;;;;;1.25;1.15;;;15.50;46.90;;;;;;4968991;28;45365;-63
2022/03/09 04:53:43;;;;;;;1.30;1.05;;;15.50;47.00;;;;;;4976110;28;45273;-63
2022/03/09 04:56:08;;;;;;;1.20;1.10;;;15.50;46.90;;;;;;4975392;28;45192;-65
2022/03/09 04:58:34;;;;;;;1.42;1.30;;;15.50;46.90;;;;;;4977194;28;45377;-64
2022/03/09 05:00:59;;;;;;;1.63;1.20;;;15.50;46.90;;;;;;4975001;28;45586;-64
2022/03/09 05:03:25;;;;;;;1.63;1.13;;;15.50;46.90;;;;;;4973035;28;45435;-63
2022/03/09 05:05:51;;;;;;;1.30;1.20;;;15.50;46.80;;;;;;4990576;28;45225;-63
2022/03/09 05:08:16;;;;;;;1.42;1.17;;;15.50;46.80;;;;;;4975781;28;45346;-63
2022/03/09 05:10:42;;;;;;;1.35;1.23;;;15.50;46.80;;;;;;4973473;28;45309;-63
2022/03/09 05:13:07;;;;;;;1.20;1.02;;;15.40;46.80;;;;;;4973535;28;46318;-63
2022/03/09 05:15:33;;;;;;;2.15;1.23;;;15.40;46.90;;;;;;4975268;28;45308;-64
2022/03/09 05:17:58;;;;;;;1.27;1.10;;;15.40;46.90;;;;;;4974997;28;45207;-63
2022/03/09 05:20:24;;;;;;;1.50;1.23;;;15.40;46.80;;;;;;4975887;28;45341;-64
2022/03/09 05:22:50;;;;;;;1.58;1.27;;;15.40;46.70;;;;;;4974429;28;45363;-63
2022/03/09 05:25:16;;;;;;;1.50;1.23;;;15.50;46.70;;;;;;4975160;28;44834;-64
2022/03/09 05:27:41;;;;;;;1.42;1.10;;;15.50;46.70;;;;;;4956653;28;45221;-63
2022/03/09 05:30:09;;;;;;;1.17;0.95;;;15.40;46.60;;;;;;4974719;28;45182;-63
2022/03/09 05:32:35;;;;;;;2.13;1.50;;;15.40;46.70;;;;;;4976424;28;45554;-63
2022/03/09 05:35:01;;;;;;;1.25;1.15;;;15.40;46.70;;;;;;4976085;28;45432;-64
2022/03/09 05:37:28;;;;;;;1.23;1.10;;;15.40;46.60;;;;;;4974281;28;45528;-63
2022/03/09 05:39:54;;;;;;;1.35;1.25;;;15.40;46.60;;;;;;4958379;28;45641;-62
2022/03/09 05:42:19;;;;;;;1.70;1.30;;;15.40;46.60;;;;;;4972673;28;45623;-64
2022/03/09 05:44:45;;;;;;;1.92;1.48;;;15.40;46.80;;;;;;4974426;28;44958;-63
2022/03/09 05:47:10;;;;;;;1.58;1.10;;;15.30;46.80;;;;;;4975411;28;45530;-64
2022/03/09 05:49:36;;;;;;;2.80;1.42;;;15.30;46.90;;;;;;4963539;28;45081;-66
2022/03/09 05:52:04;;;;;;;1.30;1.10;;;15.30;47.00;;;;;;4963768;28;45375;-64
2022/03/09 05:54:30;;;;;;;0.95;0.90;;;15.30;46.90;;;;;;4975917;28;45628;-65
2022/03/09 05:56:55;;;;;;;1.42;1.33;;;15.30;46.80;;;;;;4956390;28;45381;-63
2022/03/09 05:59:21;;;;;;;1.73;1.25;;;15.30;46.70;;;;;;4975428;28;44831;-63
2022/03/09 06:01:46;;;;;;;1.23;1.13;;;15.30;46.80;;;;;;4980248;28;45278;-63
2022/03/09 06:04:12;;;;;;;1.85;1.42;;;15.20;47.10;;;;;;4977041;28;45141;-64
2022/03/09 06:06:37;;;;;;;1.65;1.38;;;15.20;46.90;;;;;;4976950;28;44964;-64
2022/03/09 06:09:03;;;;;;;1.20;1.10;;;15.20;46.90;;;;;;4978187;28;45375;-63
2022/03/09 06:11:28;;;;;;;3.25;1.05;;;15.20;46.90;;;;;;4976308;28;47133;-65
2022/03/09 06:13:54;;;;;;;1.20;1.10;;;15.20;47.00;;;;;;4978450;28;45191;-63
2022/03/09 06:16:20;;;;;;;1.80;1.20;;;15.10;47.00;;;;;;4977094;28;45159;-63
2022/03/09 06:18:46;;;;;;;2.13;1.30;;;15.10;47.10;;;;;;4977945;28;45239;-64
2022/03/09 06:21:14;;;;;;;1.52;1.42;;;15.10;47.00;;;;;;4978882;28;46086;-65
2022/03/09 06:23:40;;;;;;;1.27;1.15;;;15.10;47.00;;;;;;4977053;28;45104;-64
2022/03/09 06:26:06;;;;;;;2.13;1.42;;;15.20;47.00;;;;;;4976380;28;45605;-64
2022/03/09 06:28:32;;;;;;;2.10;1.20;;;15.10;46.80;;;;;;4978968;28;45464;-64
2022/03/09 06:30:57;;;;;;;1.95;1.27;;;15.20;46.90;;;;;;4971931;28;46070;-64
2022/03/09 06:33:23;;;;;;;2.00;1.48;;;15.10;46.90;;;;;;4975930;28;46119;-64
2022/03/09 06:35:49;;;;;;;1.90;1.40;;;15.10;46.90;;;;;;4979061;28;45646;-64
2022/03/09 06:38:15;;;;;;;1.67;1.30;;;15.10;47.00;;;;;;4975940;28;45410;-64
2022/03/09 06:40:41;;;;;;;1.95;1.20;;;15.10;47.00;;;;;;4975156;28;45932;-64
2022/03/09 06:43:06;;;;;;;1.77;1.55;;;15.10;47.00;;;;;;4976365;28;45160;-64
2022/03/09 06:45:32;;;;;;;2.50;1.70;;;15.10;47.00;;;;;;4978229;28;45162;-64
2022/03/09 06:47:57;;;;;;;1.38;1.27;;;15.10;46.90;;;;;;4979265;28;44660;-64
2022/03/09 06:50:23;;;;;;;2.42;1.50;;;15.10;47.00;;;;;;4978236;28;45253;-63
2022/03/09 06:52:49;;;;;;;1.58;1.30;;;15.10;46.90;;;;;;4976420;28;45195;-65
2022/03/09 06:55:14;;;;;;;2.20;1.42;;;15.10;46.80;;;;;;4978734;28;45377;-64
2022/03/09 06:57:40;;;;;;;1.85;1.60;;;15.20;46.70;;;;;;4944546;28;45225;-64
2022/03/09 07:00:07;;;;;;;2.08;1.42;;;15.20;46.70;;;;;;4959801;28;46413;-64
2022/03/09 07:02:32;;;;;;;2.25;1.30;;;15.20;46.60;;;;;;4973777;28;45169;-64
2022/03/09 07:04:58;;;;;;;2.53;1.50;;;15.20;46.50;;;;;;4961332;28;45365;-64
2022/03/09 07:07:24;;;;;;;1.92;1.70;;;15.20;46.50;;;;;;4978498;28;44706;-65
2022/03/09 07:09:49;;;;;;;1.98;1.55;;;15.20;46.50;;;;;;4976967;28;46132;-67
2022/03/09 07:12:15;;;;;;;2.58;1.60;;;15.30;46.40;;;;;;4977331;28;45496;-65
2022/03/09 07:14:40;;;;;;;1.92;1.40;;;15.30;46.50;;;;;;4977094;28;45217;-65
2022/03/09 07:17:06;;;;;;;1.65;1.40;;;15.40;46.10;;;;;;4959543;28;45294;-65
2022/03/09 07:19:32;;;;;;;1.90;1.30;;;15.50;45.90;;;;;;4959261;28;47920;-66
2022/03/09 07:21:57;;;;;;;1.40;1.30;;;15.70;45.70;;;;;;4955307;28;45700;-68
2022/03/09 07:24:23;;;;;;;1.77;1.30;;;15.80;45.50;;;;;;4960219;28;44711;-65
2022/03/09 07:26:48;;;;;;;1.33;1.20;;;15.90;45.30;;;;;;4978252;28;45555;-66
2022/03/09 07:29:15;;;;;;;3.03;1.10;;;16.10;45.20;;;;;;4976922;28;45027;-67
2022/03/09 07:31:41;;;;;;;1.27;1.10;;;16.20;45.00;;;;;;4972502;28;45648;-65
2022/03/09 07:34:06;;;;;;;1.50;1.17;;;16.30;44.90;;;;;;4976764;28;45241;-65
2022/03/09 07:36:32;;;;;;;1.50;1.20;;;16.50;44.70;;;;;;4977888;28;45455;-68
2022/03/09 07:38:57;;;;;;;1.33;1.10;;;16.60;44.60;;;;;;4991993;28;45270;-67
2022/03/09 07:41:23;;;;;;;2.67;0.93;;;16.70;44.50;;;;;;4977769;28;45379;-67
2022/03/09 07:43:49;;;;;;;1.27;1.15;;;16.80;44.30;;;;;;4974560;28;45297;-65
2022/03/09 07:46:14;;;;;;;1.30;0.98;;;17.00;44.20;;;;;;4977043;28;45492;-66
2022/03/09 07:48:40;;;;;;;1.20;1.10;;;17.10;44.20;;;;;;4975432;28;45462;-65
2022/03/09 07:51:05;;;;;;;1.40;1.13;;;17.20;44.00;;;;;;4976178;28;44946;-70
2022/03/09 07:53:31;;;;;;;1.23;1.05;;;17.40;43.90;;;;;;4958665;28;44976;-66
2022/03/09 07:55:57;;;;;;;1.88;1.20;;;17.50;43.80;;;;;;4976855;28;45004;-66
2022/03/09 07:58:22;;;;;;;1.65;1.20;;;17.60;43.70;;;;;;4975396;28;45475;-66
2022/03/09 08:00:48;;;;;;;2.08;1.20;;;17.80;43.70;;;;;;4970860;28;45509;-66
2022/03/09 08:03:13;;;;;;;1.20;1.10;;;17.80;43.60;;;;;;4968600;28;45561;-65
2022/03/09 08:05:39;;;;;;;1.05;0.90;;;18.00;43.50;;;;;;4960009;28;44991;-66
2022/03/09 08:08:05;;;;;;;1.10;1.00;;;18.10;43.50;;;;;;4976945;28;46187;-65
2022/03/09 08:10:30;;;;;;;1.98;1.27;;;18.20;43.30;;;;;;5000737;28;45584;-65
2022/03/09 08:12:56;;;;;;;1.23;0.88;;;18.30;43.30;;;;;;4978522;28;45032;-65
2022/03/09 08:15:22;;;;;;;1.30;1.00;;;18.40;43.10;;;;;;4959002;28;45204;-64
2022/03/09 08:17:47;;;;;;;0.88;0.88;;;18.60;43.10;;;;;;4958641;28;45281;-65
2022/03/09 08:20:13;;;;;;;1.20;1.10;;;18.70;43.00;;;;;;4976702;28;45348;-66
2022/03/09 08:22:39;;;;;;;0.70;0.70;;;18.80;42.90;;;;;;4975692;28;45395;-63
2022/03/09 08:25:06;;;;;;;1.42;1.02;;;18.90;42.80;;;;;;4975827;28;45152;-67
2022/03/09 08:27:32;;;;;;;0.90;0.82;;;19.00;42.70;;;;;;4958860;28;45961;-65
2022/03/09 08:29:57;;;;;;;1.17;1.00;;;19.10;42.60;;;;;;4976843;28;45570;-64
2022/03/09 08:32:23;;;;;;;1.10;1.00;;;19.20;42.60;;;;;;4965352;28;44846;-66
2022/03/09 08:34:49;;;;;;;1.42;1.02;;;19.30;42.50;;;;;;4981442;28;45388;-64
2022/03/09 08:37:16;;;;;;;1.00;0.90;;;19.50;42.50;;;;;;4959412;28;47014;-63
2022/03/09 08:39:43;;;;;;;0.88;0.88;;;19.60;42.40;;;;;;4978939;28;45623;-63
2022/03/09 08:42:09;;;;;;;0.80;0.80;;;19.70;42.30;;;;;;4943890;28;44691;-66
2022/03/09 08:44:35;;;;;;;1.30;0.82;;;19.80;42.80;;;;;;4979299;28;45121;-65
2022/03/09 08:47:01;;;;;;;3.15;1.00;;;19.90;42.10;;;;;;4962463;28;46027;-66
2022/03/09 08:49:27;;;;;;;0.70;0.68;;;20.00;42.00;;;;;;4954825;28;45281;-66
2022/03/09 08:51:52;;;;;;;1.17;1.08;;;20.10;42.00;;;;;;4975971;28;45245;-65
2022/03/09 08:54:18;;;;;;;1.00;0.80;;;20.20;41.90;;;;;;4979258;28;45244;-65
2022/03/09 08:56:43;;;;;;;3.08;0.80;;;20.30;41.80;;;;;;4979384;28;46085;-66
2022/03/09 08:59:09;;;;;;;1.75;1.00;;;20.40;41.70;;;;;;4978453;28;44905;-65
2022/03/09 09:01:35;;;;;;;1.17;1.08;;;20.50;41.60;;;;;;4976214;28;44738;-65
2022/03/09 09:04:01;;;;;;;2.33;1.10;;;20.60;41.60;;;;;;4957862;28;45746;-67
2022/03/09 09:06:26;;;;;;;1.05;0.80;;;20.80;41.60;;;;;;4966102;28;47047;-67
2022/03/09 09:08:52;;;;;;;2.83;1.00;;;20.80;41.50;;;;;;4971868;28;44744;-66
2022/03/09 09:11:17;;;;;;;1.02;0.80;;;21.00;41.40;;;;;;4977137;28;45202;-67
2022/03/09 09:13:43;;;;;;;0.75;0.75;;;21.00;41.40;;;;;;4976508;28;45336;-66
2022/03/09 09:16:09;;;;;;;2.92;0.95;;;21.10;41.30;;;;;;4958773;28;45461;-66
2022/03/09 09:18:34;;;;;;;0.98;0.88;;;21.20;41.20;;;;;;4959590;28;45259;-66
2022/03/09 09:21:00;;;;;;;0.88;0.88;;;21.30;41.20;;;;;;4959549;28;45236;-64
2022/03/09 09:23:26;;;;;;;1.13;0.95;;;21.40;41.10;;;;;;4976614;28;44718;-66
2022/03/09 09:25:51;;;;;;;1.25;0.80;;;21.50;41.10;;;;;;4962274;28;46600;-67
2022/03/09 09:28:17;;;;;;;0.80;0.80;;;21.60;40.90;;;;;;4961526;28;46592;-66
2022/03/09 09:30:43;;;;;;;1.20;0.70;;;21.70;40.80;;;;;;4978203;28;45053;-67
2022/03/09 09:33:08;;;;;;;0.95;0.80;;;21.80;40.90;;;;;;4978324;28;45554;-67
2022/03/09 09:35:34;;;;;;;0.82;0.82;;;21.90;40.80;;;;;;4994680;28;46776;-65
2022/03/09 09:38:06;;;;;;;0.63;0.63;;;22.00;40.70;;;;;;4981219;28;45435;-67
2022/03/09 09:40:36;;;;;;;1.60;0.90;;;22.10;40.60;;;;;;4979504;28;45359;-65
2022/03/09 09:43:07;;;;;;;0.75;0.75;;;22.20;40.50;;;;;;4977784;28;45573;-64
2022/03/09 09:45:34;;;;;;;1.25;0.95;;;22.30;40.50;;;;;;4970230;28;45513;-65
2022/03/09 09:48:01;;;;;;;0.73;0.73;;;22.40;40.50;;;;;;4977276;28;45593;-62
2022/03/09 09:50:26;;;;;;;0.85;0.70;;;22.50;40.40;;;;;;4979571;28;45152;-66
2022/03/09 09:52:52;;;;;;;0.88;0.85;;;22.50;40.40;;;;;;4977629;28;45651;-67
2022/03/09 09:55:18;;;;;;;1.67;0.70;;;22.60;40.30;;;;;;4962594;28;45033;-66
2022/03/09 09:57:46;;;;;;;2.97;0.90;;;22.70;40.30;;;;;;4978285;28;45440;-66
2022/03/09 10:00:12;;;;;;;0.73;0.57;;;22.80;40.10;;;;;;4961523;28;45540;-66
2022/03/09 10:02:39;;;;;;;0.70;0.70;;;22.80;40.10;;;;;;4976344;28;45391;-65
2022/03/09 10:05:05;;;;;;;1.05;0.70;;;23.00;40.20;;;;;;4982197;28;46153;-65
2022/03/09 10:07:30;;;;;;;1.08;0.98;;;23.00;40.10;;;;;;4985774;28;44662;-64
2022/03/09 10:09:56;;;;;;;1.40;0.75;;;23.10;40.00;;;;;;4998119;28;45058;-66
2022/03/09 10:12:28;;;;;;;1.15;0.73;;;23.20;39.90;;;;;;4994431;28;44786;-66
2022/03/09 10:14:54;;;;;;;0.80;0.80;;;23.30;39.90;;;;;;4961625;28;46516;-70
2022/03/09 10:17:24;;;;;;;0.70;0.70;;;23.30;39.80;;;;;;4978181;28;45497;-65
2022/03/09 10:20:00;;;;;;;1.15;0.90;;;23.40;39.80;;;;;;4977782;28;44950;-64
2022/03/09 10:22:31;;;;;;;0.60;0.60;;;23.50;39.70;;;;;;4977853;28;45142;-66
2022/03/09 10:25:16;;;;;;;0.80;0.80;;;23.60;39.60;;;;;;4962307;28;47096;-65
2022/03/09 10:27:51;;;;;;;3.80;0.70;;;23.60;39.60;;;;;;4977747;28;45358;-69
2022/03/09 10:30:21;;;;;;;0.77;0.70;;;23.70;39.60;;;;;;4976951;28;45726;-64
2022/03/09 10:32:52;;;;;;;0.85;0.70;;;23.80;39.40;;;;;;4962177;28;45215;-66
2022/03/09 10:35:20;;;;;;;0.95;0.80;;;23.90;39.20;;;;;;4979167;28;45286;-67
2022/03/09 10:37:47;;;;;;;1.00;0.90;;;24.00;39.50;;;;;;4976446;28;45529;-66
2022/03/09 10:40:19;;;;;;;0.60;0.60;;;24.10;39.40;;;;;;4965937;28;45486;-67
2022/03/09 10:42:45;;;;;;;0.65;0.60;;;24.10;39.20;;;;;;4963096;28;45140;-68
2022/03/09 10:45:11;;;;;;;0.75;0.75;;;24.20;39.30;;;;;;4978112;28;45613;-65
2022/03/09 10:47:41;;;;;;;0.80;0.60;;;24.30;39.20;;;;;;4978678;28;45577;-65
2022/03/09 10:50:30;;;;;;;0.65;0.60;;;24.30;39.70;;;;;;4958530;28;45175;-65
2022/03/09 10:52:57;;;;;;;0.95;0.60;;;24.40;38.60;;;;;;4991035;28;45491;-65
2022/03/09 10:55:36;;;;;;;3.08;0.63;;;24.40;38.90;;;;;;4971057;28;46234;-65
2022/03/09 10:58:21;;;;;;;0.90;0.88;;;24.50;38.70;;;;;;4975806;28;45169;-66
2022/03/09 11:00:48;;;;;;;0.80;0.80;;;24.60;38.40;;;;;;4979026;28;45244;-65
2022/03/09 11:03:18;;;;;;;0.75;0.57;;;24.60;38.80;;;;;;4948583;28;45204;-65
2022/03/09 11:05:54;;;;;;;1.17;0.80;;;24.70;38.70;;;;;;4988167;28;45957;-66
2022/03/09 11:08:28;;;;;;;0.60;0.60;;;24.70;38.70;;;;;;4979985;28;45187;-64
2022/03/09 11:10:58;;;;;;;0.68;0.60;;;24.80;38.60;;;;;;4980449;28;45172;-64
2022/03/09 11:13:24;;;;;;;0.88;0.65;;;24.80;38.70;;;;;;4980873;28;45087;-64
2022/03/09 11:15:49;;;;;;;1.23;0.70;;;24.80;38.70;;;;;;4982661;28;47163;-64
2022/03/09 11:18:19;;;;;;;0.90;0.63;;;24.90;38.60;;;;;;4963649;28;45327;-64
2022/03/09 11:20:49;;;;;;;0.50;0.50;;;24.90;38.50;;;;;;4975163;28;45008;-65
2022/03/09 11:23:16;;;;;;;1.73;0.70;;;24.90;38.50;;;;;;4989390;28;45607;-67
2022/03/09 11:26:19;;;;;;;1.95;0.70;;;25.00;38.60;;;;;;4961526;28;45342;-66
2022/03/09 11:28:45;;;;;;;2.75;0.60;;;25.00;37.90;;;;;;4947517;28;44705;-65
2022/03/09 11:31:12;;;;;;;0.80;0.60;;;25.00;38.50;;;;;;4965622;28;45247;-65
2022/03/09 11:33:51;;;;;;;1.02;0.80;;;25.10;38.50;;;;;;4954696;28;44806;-66
2022/03/09 11:36:29;;;;;;;2.08;0.70;;;25.20;38.10;;;;;;4979231;28;47139;-64
2022/03/09 11:39:04;;;;;;;1.48;0.60;;;25.20;38.20;;;;;;4989826;28;44630;-66
2022/03/09 11:41:36;;;;;;;1.35;0.65;;;25.20;38.20;;;;;;4988794;28;44697;-66
2022/03/09 11:44:20;;;;;;;1.77;0.70;;;25.30;38.40;;;;;;4966092;28;45113;-66
2022/03/09 11:47:00;;;;;;;0.88;0.70;;;25.30;37.90;;;;;;4979599;28;45263;-65
2022/03/09 11:49:36;;;;;;;0.80;0.60;;;25.40;38.00;;;;;;4981205;28;45173;-65
2022/03/09 11:52:06;;;;;;;0.55;0.45;;;25.40;38.20;;;;;;4977512;28;45529;-65
2022/03/09 11:54:55;;;;;;;1.30;0.80;;;25.40;38.20;;;;;;4987045;28;45411;-66
2022/03/09 11:57:23;;;;;;;2.17;0.80;;;25.50;38.10;;;;;;4988508;28;45270;-65
2022/03/09 12:00:12;;;;;;;1.20;0.52;;;25.50;38.30;;;;;;4982433;28;45345;-66
2022/03/09 12:02:39;;;;;;;0.57;0.40;;;25.60;37.90;;;;;;4948025;28;45564;-65
2022/03/09 12:05:05;;;;;;;0.98;0.50;;;25.60;38.30;;;;;;4942214;28;45218;-66
2022/03/09 12:07:31;;;;;;;2.85;0.55;;;25.60;38.30;;;;;;4943607;28;46115;-65
2022/03/09 12:10:04;;;;;;;2.92;0.63;;;25.70;38.30;;;;;;4946461;28;45226;-65
2022/03/09 12:12:34;;;;;;;0.68;0.57;;;25.70;38.20;;;;;;4940598;28;44807;-66
2022/03/09 12:15:08;;;;;;;0.82;0.60;;;25.70;38.20;;;;;;4941597;28;45469;-65
2022/03/09 12:17:34;;;;;;;0.70;0.70;;;25.80;38.20;;;;;;4932490;28;44905;-66
2022/03/09 12:20:25;;;;;;;1.60;0.60;;;25.80;38.30;;;;;;4943810;28;45244;-64
2022/03/09 12:22:56;;;;;;;0.57;0.57;;;25.80;38.00;;;;;;4941198;28;45405;-64
2022/03/09 12:25:46;;;;;;;0.55;0.52;;;25.90;38.10;;;;;;4940777;28;45464;-64
2022/03/09 12:28:32;;;;;;;0.73;0.50;;;25.80;38.00;;;;;;4941810;28;45908;-65
2022/03/09 12:31:03;;;;;;;1.52;0.60;;;25.90;38.00;;;;;;4935240;28;45193;-65
2022/03/09 12:33:39;;;;;;;0.63;0.50;;;25.90;38.20;;;;;;4950231;28;45259;-64
2022/03/09 12:36:15;;;;;;;2.25;0.57;;;25.90;38.00;;;;;;4926345;28;44848;-66
2022/03/09 12:38:45;;;;;;;0.60;0.60;;;25.90;38.10;;;;;;4921874;28;46914;-67
2022/03/09 12:41:26;;;;;;;0.50;0.50;;;26.00;38.40;;;;;;4931998;28;45163;-65
2022/03/09 12:43:53;;;;;;;0.50;0.50;;;26.00;37.90;;;;;;4958160;28;44729;-65
2022/03/09 12:46:18;;;;;;;2.47;0.60;;;26.00;38.40;;;;;;4944906;28;45080;-67
2022/03/09 12:48:44;;;;;;;1.20;0.63;;;26.00;38.30;;;;;;4941594;28;46308;-64
2022/03/09 12:51:10;;;;;;;0.73;0.45;;;26.00;38.30;;;;;;4939139;28;45562;-64
2022/03/09 12:53:36;;;;;;;0.50;0.50;;;26.10;38.40;;;;;;4940981;28;45281;-65
2022/03/09 12:56:19;;;;;;;3.00;0.60;;;26.10;38.30;;;;;;4937629;28;44654;-64
2022/03/09 12:58:44;;;;;;;0.87;0.70;;;26.10;38.00;;;;;;4932747;28;46048;-65
2022/03/09 13:01:13;;;;;;;3.00;0.50;;;26.10;38.40;;;;;;4950909;28;44903;-64
2022/03/09 13:03:42;;;;;;;0.95;0.65;;;26.10;38.40;;;;;;4950987;28;45336;-67
2022/03/09 13:06:28;;;;;;;1.00;0.40;;;26.10;38.40;;;;;;4970739;28;45229;-64
2022/03/09 13:08:53;;;;;;;2.20;0.52;;;26.20;38.10;;;;;;4971946;28;46180;-64
2022/03/09 13:11:29;;;;;;;2.92;0.52;;;26.20;38.40;;;;;;4974664;28;45199;-65
2022/03/09 13:13:55;;;;;;;0.60;0.52;;;26.20;38.30;;;;;;4957002;28;45214;-63
2022/03/09 13:16:25;;;;;;;0.55;0.50;;;26.20;38.40;;;;;;4977565;28;45310;-66
2022/03/09 13:18:55;;;;;;;2.22;0.57;;;26.30;38.50;;;;;;4972642;28;45459;-66
2022/03/09 13:21:24;;;;;;;0.60;0.60;;;26.20;38.50;;;;;;4970975;28;44795;-66
2022/03/09 13:23:49;;;;;;;0.98;0.55;;;26.30;38.50;;;;;;4956982;28;45308;-64
2022/03/09 13:26:22;;;;;;;0.60;0.60;;;26.30;38.50;;;;;;4976019;28;45320;-66
2022/03/09 13:29:14;;;;;;;;;;;26.30;38.50;;;;;;4971528;28;46031;-63
2022/03/09 13:32:00;;;;;;;0.35;0.32;;;26.20;38.30;;;;;;4965352;28;45267;-64
2022/03/09 13:34:26;;;;;;;0.50;0.50;;;26.30;38.50;;;;;;4977935;28;44762;-64
2022/03/09 13:37:05;;;;;;;2.75;0.75;;;26.30;38.80;;;;;;4952696;28;45702;-64
2022/03/09 13:39:44;;;;;;;1.25;0.52;;;26.30;38.60;;;;;;4973211;28;45898;-65
2022/03/09 13:42:14;;;;;;;1.83;0.68;;;26.30;38.50;;;;;;4974766;28;45332;-66
2022/03/09 13:44:40;;;;;;;0.52;0.50;;;26.30;38.70;;;;;;4967739;28;44890;-66
2022/03/09 13:47:06;;;;;;;3.28;0.55;;;26.30;38.70;;;;;;4972503;28;45810;-64
2022/03/09 13:50:01;;;;;;;0.68;0.65;;;26.40;38.80;;;;;;4974786;28;47101;-63
2022/03/09 13:52:31;;;;;;;0.65;0.60;;;26.30;38.50;;;;;;4962716;28;45294;-63
2022/03/09 13:55:01;;;;;;;0.98;0.50;;;26.30;38.80;;;;;;4977501;28;45489;-64
2022/03/09 13:57:31;;;;;;;1.33;0.68;;;26.40;38.80;;;;;;4960538;28;45235;-64
2022/03/09 13:59:57;;;;;;;1.58;0.52;;;26.40;38.80;;;;;;4973741;28;46628;-65
2022/03/09 14:02:24;;;;;;;0.88;0.68;;;26.40;38.90;;;;;;4958686;28;45480;-63
2022/03/09 14:04:50;;;;;;;1.10;0.50;;;26.30;38.80;;;;;;4973146;28;45392;-63
2022/03/09 14:07:16;;;;;;;1.50;0.47;;;26.30;38.80;;;;;;4956281;28;44857;-64
2022/03/09 14:09:41;;;;;;;0.60;0.60;;;26.30;38.90;;;;;;4958717;28;45223;-64
2022/03/09 14:12:16;;;;;;;2.78;0.50;;;26.30;39.00;;;;;;4976217;28;45312;-64
2022/03/09 14:14:43;;;;;;;0.73;0.40;;;26.30;38.90;;;;;;4960776;28;45100;-63
2022/03/09 14:17:09;;;;;;;1.73;0.57;;;26.30;39.00;;;;;;4976373;28;45449;-64
2022/03/09 14:19:34;;;;;;;1.50;0.77;;;26.30;39.00;;;;;;4977946;28;45720;-64
2022/03/09 14:22:00;;;;;;;1.08;0.50;;;26.30;39.00;;;;;;4962772;28;45942;-64
2022/03/09 14:24:26;;;;;;;1.15;0.70;;;26.30;39.00;;;;;;4976971;28;45341;-63
2022/03/09 14:26:53;;;;;;;2.63;0.68;;;26.30;39.10;;;;;;4978186;28;45538;-64
2022/03/09 14:29:19;;;;;;;0.52;0.47;;;26.20;39.00;;;;;;4969876;28;45413;-65
2022/03/09 14:31:46;;;;;;;3.25;0.70;;;26.20;39.00;;;;;;4974445;28;45053;-65
2022/03/09 14:34:12;;;;;;;0.98;0.63;;;26.20;39.10;;;;;;4975377;28;45637;-65
2022/03/09 14:36:38;;;;;;;0.88;0.40;;;26.30;39.20;;;;;;4978897;28;45258;-65
2022/03/09 14:39:04;;;;;;;1.48;0.55;;;26.30;39.20;;;;;;4978661;28;45577;-65
2022/03/09 14:41:29;;;;;;;1.50;0.70;;;26.20;39.20;;;;;;4960914;28;45207;-64
2022/03/09 14:43:55;;;;;;;0.75;0.75;;;26.20;39.20;;;;;;4976493;28;45370;-64
2022/03/09 14:46:21;;;;;;;2.92;0.55;;;26.20;39.30;;;;;;4978928;28;45144;-63
2022/03/09 14:48:46;;;;;;;1.50;0.60;;;26.20;39.30;;;;;;4975794;28;45896;-65
2022/03/09 14:51:12;;;;;;;1.13;0.52;;;26.20;39.30;;;;;;4955311;28;45419;-65
2022/03/09 14:53:38;;;;;;;0.60;0.60;;;26.20;39.30;;;;;;4977336;28;45259;-65
2022/03/09 14:56:09;;;;;;;2.63;0.63;;;26.30;39.40;;;;;;4962681;28;45132;-65
2022/03/09 14:58:38;;;;;;;1.20;0.55;;;26.20;39.40;;;;;;4973422;28;45799;-64
2022/03/09 15:01:04;;;;;;;0.57;0.57;;;26.20;39.50;;;;;;4976415;28;45533;-65
2022/03/09 15:03:29;;;;;;;0.60;0.57;;;26.20;39.40;;;;;;4944558;28;45300;-67
2022/03/09 15:05:55;;;;;;;1.67;0.55;;;26.20;39.40;;;;;;4977944;28;45720;-65
2022/03/09 15:08:21;;;;;;;1.30;0.60;;;26.20;39.50;;;;;;4975744;28;46346;-64
2022/03/09 15:10:47;;;;;;;1.45;0.80;;;26.20;39.50;;;;;;4978238;28;44986;-63
2022/03/09 15:13:13;;;;;;;0.60;0.60;;;26.20;39.50;;;;;;4977525;28;45163;-63
2022/03/09 15:15:38;;;;;;;1.58;0.55;;;26.20;39.50;;;;;;4978043;28;45123;-65
2022/03/09 15:18:04;;;;;;;0.50;0.40;;;26.20;39.60;;;;;;4977888;28;45608;-65
2022/03/09 15:20:29;;;;;;;1.70;0.70;;;26.30;39.60;;;;;;4977842;28;45201;-64
2022/03/09 15:22:55;;;;;;;0.50;0.50;;;26.20;39.50;;;;;;4973149;28;45145;-64
2022/03/09 15:25:21;;;;;;;0.73;0.50;;;26.20;39.60;;;;;;4978671;28;44754;-64
2022/03/09 15:27:47;;;;;;;0.55;0.50;;;26.20;39.60;;;;;;4976048;28;45911;-65
2022/03/09 15:30:12;;;;;;;1.25;0.55;;;26.20;39.60;;;;;;4975573;28;45014;-65
2022/03/09 15:32:38;;;;;;;0.40;0.40;;;26.20;39.70;;;;;;4977912;28;45226;-65
2022/03/09 15:35:04;;;;;;;0.75;0.40;;;26.20;39.70;;;;;;4977733;28;45747;-64
2022/03/09 15:37:29;;;;;;;0.90;0.47;;;26.20;39.70;;;;;;4978776;28;45357;-64
2022/03/09 15:39:56;;;;;;;0.50;0.50;;;26.20;39.70;;;;;;4977186;28;46348;-65
2022/03/09 15:42:22;;;;;;;1.25;0.50;;;26.20;40.40;;;;;;4942808;28;45193;-65
2022/03/09 15:44:48;;;;;;;1.13;0.40;;;26.20;39.80;;;;;;4976312;28;45088;-64
2022/03/09 15:47:13;;;;;;;1.30;0.50;;;26.20;39.70;;;;;;4979262;28;46159;-64
2022/03/09 15:49:39;;;;;;;0.75;0.60;;;26.20;39.80;;;;;;4974033;28;45321;-65
2022/03/09 15:52:05;;;;;;;0.70;0.65;;;26.20;39.90;;;;;;4975560;28;45534;-67
2022/03/09 15:54:30;;;;;;;0.60;0.50;;;26.20;39.90;;;;;;4959355;28;44833;-63
2022/03/09 15:56:56;;;;;;;3.80;0.95;;;26.20;39.90;;;;;;4979895;28;46379;-64
2022/03/09 15:59:22;;;;;;;1.02;0.55;;;26.10;39.90;;;;;;4980510;28;46326;-64
2022/03/09 16:01:47;;;;;;;0.50;0.50;;;26.20;39.90;;;;;;4976301;28;45350;-64
2022/03/09 16:04:13;;;;;;;0.70;0.47;;;26.20;39.90;;;;;;4976515;28;45881;-64
2022/03/09 16:06:39;;;;;;;0.55;0.47;;;26.20;39.90;;;;;;4975506;28;45507;-64
2022/03/09 16:09:05;;;;;;;0.30;0.28;;;26.20;39.90;;;;;;4973586;28;44959;-64
2022/03/09 16:11:31;;;;;;;1.08;0.63;;;26.20;39.90;;;;;;4969039;28;45537;-63
2022/03/09 16:13:57;;;;;;;0.63;0.40;;;26.20;39.90;;;;;;4976069;28;45680;-65
2022/03/09 16:16:24;;;;;;;0.90;0.43;;;26.20;40.00;;;;;;4958246;28;46885;-65
2022/03/09 16:18:49;;;;;;;0.80;0.40;;;26.20;40.00;;;;;;4976088;28;45296;-64
2022/03/09 16:21:16;;;;;;;1.15;0.50;;;26.20;39.90;;;;;;4974193;28;45126;-64
2022/03/09 16:23:42;;;;;;;1.95;0.80;;;26.20;40.00;;;;;;4957993;28;45312;-62
2022/03/09 16:26:08;;;;;;;0.50;0.50;;;26.20;40.00;;;;;;4975448;28;46770;-64
2022/03/09 16:28:34;;;;;;;0.60;0.45;;;26.20;40.00;;;;;;4974537;28;45134;-64
2022/03/09 16:31:00;;;;;;;0.50;0.50;;;26.20;40.00;;;;;;4981392;28;45274;-67
2022/03/09 16:33:25;;;;;;;0.85;0.32;;;26.10;40.00;;;;;;4976458;28;45634;-64
2022/03/09 16:35:51;;;;;;;0.52;0.50;;;26.20;40.00;;;;;;4981380;28;45427;-65
2022/03/09 16:38:19;;;;;;;0.70;0.50;;;26.20;40.00;;;;;;4977077;28;45250;-64
2022/03/09 16:40:45;;;;;;;0.43;0.43;;;26.20;40.10;;;;;;4976597;28;44633;-63
2022/03/09 16:43:11;;;;;;;0.50;0.50;;;26.20;40.10;;;;;;4972698;28;45270;-64
2022/03/09 16:45:36;;;;;;;0.50;0.50;;;26.20;40.10;;;;;;4975969;28;45470;-64
2022/03/09 16:48:02;;;;;;;0.80;0.65;;;26.20;40.10;;;;;;4974743;28;45248;-64
2022/03/09 16:50:28;;;;;;;0.50;0.45;;;26.20;40.70;;;;;;4974052;28;45620;-64